createdAt,value
2019-06-01T00:02:04.077Z,11.40
2019-06-01T00:07:01.128Z,9.60
2019-06-01T00:11:57.438Z,12.10
2019-06-01T00:16:53.363Z,9.03
2019-06-01T00:21:49.523Z,12.63
2019-06-01T00:26:45.913Z,9.47
2019-06-01T00:31:43.045Z,12.70
2019-06-01T00:36:39.179Z,11.07
2019-06-01T00:41:35.114Z,10.80
2019-06-01T00:46:31.136Z,10.57
2019-06-01T00:51:27.068Z,10.47
2019-06-01T00:56:23.094Z,12.13
2019-06-01T01:01:19.017Z,10.87
2019-06-01T01:06:14.942Z,11.63
2019-06-01T01:11:11.018Z,11.10
2019-06-01T01:16:06.941Z,10.83
2019-06-01T01:21:03.006Z,11.03
2019-06-01T01:25:58.907Z,11.63
2019-06-01T01:31:06.555Z,11.50
2019-06-01T01:35:54.098Z,13.20
2019-06-01T01:40:50.317Z,13.47
2019-06-01T01:45:46.440Z,14.70
2019-06-01T01:50:42.424Z,15.43
2019-06-01T01:55:38.443Z,15.93
2019-06-01T02:00:45.848Z,13.87
2019-06-01T02:05:41.861Z,14.77
2019-06-01T02:10:37.882Z,16.20
2019-06-01T02:15:34.997Z,14.80
2019-06-01T02:20:31.375Z,14.70
2019-06-01T02:25:27.505Z,14.90
2019-06-01T02:30:23.643Z,14.70
2019-06-01T02:35:19.598Z,16.53
2019-06-01T02:40:15.721Z,16.27
2019-06-01T02:45:12.350Z,16.57
2019-06-01T02:50:08.809Z,16.80
2019-06-01T02:55:07.644Z,18.43
2019-06-01T03:00:06.697Z,18.23
2019-06-01T03:05:05.543Z,19.03
2019-06-01T03:10:03.315Z,16.63
2019-06-01T03:15:00.587Z,15.67
2019-06-01T03:19:57.012Z,17.20
2019-06-01T03:24:54.146Z,16.30
2019-06-01T03:29:53.990Z,16.50
2019-06-01T03:34:50.011Z,15.60
2019-06-01T03:39:47.250Z,18.20
2019-06-01T03:44:43.175Z,16.37
2019-06-01T03:49:39.127Z,17.17
2019-06-01T03:54:35.105Z,18.13
2019-06-01T03:59:30.998Z,18.03
2019-06-01T04:04:26.920Z,17.60
2019-06-01T04:09:23.468Z,17.30
2019-06-01T04:14:19.435Z,17.20
2019-06-01T04:19:15.363Z,17.27
2019-06-01T04:24:12.332Z,19.13
2019-06-01T04:29:08.504Z,20.20
2019-06-01T04:34:04.623Z,20.63
2019-06-01T04:39:09.354Z,20.90
2019-06-01T04:44:06.457Z,21.40
2019-06-01T04:49:02.559Z,21.17
2019-06-01T04:53:58.538Z,20.37
2019-06-01T04:58:54.462Z,19.07
2019-06-01T05:03:50.399Z,20.30
2019-06-01T05:08:49.326Z,21.23
2019-06-01T05:13:45.366Z,20.50
2019-06-01T05:18:41.279Z,20.80
2019-06-01T05:23:37.268Z,18.97
2019-06-01T05:28:33.194Z,15.80
2019-06-01T05:33:36.960Z,16.20
2019-06-01T05:38:28.390Z,14.60
2019-06-01T05:43:24.323Z,13.50
2019-06-01T05:48:25.038Z,13.17
2019-06-01T05:53:19.896Z,14.07
2019-06-01T05:58:17.275Z,14.57
2019-06-01T06:03:16.209Z,13.60
2019-06-01T06:08:12.734Z,13.17
2019-06-01T06:13:09.022Z,12.00
2019-06-01T06:18:05.049Z,11.37
2019-06-01T06:23:00.983Z,11.90
2019-06-01T06:27:56.911Z,12.13
2019-06-01T06:32:52.840Z,11.80
2019-06-01T06:37:48.771Z,11.80
2019-06-01T06:42:44.703Z,11.53
2019-06-01T06:47:40.634Z,12.60
2019-06-01T06:52:36.601Z,11.13
2019-06-01T06:57:32.532Z,12.00
2019-06-01T07:02:28.462Z,12.10
2019-06-01T07:07:24.403Z,12.00
2019-06-01T07:12:21.224Z,12.30
2019-06-01T07:17:17.279Z,11.10
2019-06-01T07:22:16.762Z,9.97
2019-06-01T07:27:11.670Z,11.90
2019-06-01T07:32:08.543Z,8.87
2019-06-01T07:37:07.232Z,10.20
2019-06-01T07:42:03.522Z,8.37
2019-06-01T07:46:59.552Z,8.77
2019-06-01T07:51:57.059Z,6.40
2019-06-01T07:56:53.938Z,7.30
2019-06-01T08:01:50.769Z,7.33
2019-06-01T08:06:48.605Z,7.70
2019-06-01T08:11:44.616Z,5.93
2019-06-01T08:16:40.550Z,6.40
2019-06-01T08:21:36.484Z,6.30
2019-06-01T08:26:32.747Z,6.60
2019-06-01T08:31:28.961Z,5.93
2019-06-01T08:36:25.274Z,5.53
2019-06-01T08:41:21.305Z,5.80
2019-06-01T08:46:17.235Z,6.77
2019-06-01T08:51:13.188Z,4.57
2019-06-01T08:56:09.123Z,6.17
2019-06-01T09:01:05.052Z,6.20
2019-06-01T09:06:00.989Z,5.47
2019-06-01T09:10:56.927Z,6.03
2019-06-01T09:15:52.861Z,5.83
2019-06-01T09:20:48.893Z,6.07
2019-06-01T09:25:44.825Z,5.30
2019-06-01T09:30:40.776Z,5.13
2019-06-01T09:35:52.678Z,5.20
2019-06-01T09:40:35.193Z,4.87
2019-06-01T09:45:34.577Z,5.67
2019-06-01T09:50:31.303Z,2.80
2019-06-01T09:55:27.532Z,5.37
2019-06-01T10:00:25.055Z,6.20
2019-06-01T10:05:20.982Z,5.60
2019-06-01T10:10:17.007Z,5.00
2019-06-01T10:15:13.038Z,4.03
2019-06-01T10:20:09.665Z,4.47
2019-06-01T10:25:06.397Z,4.53
2019-06-01T10:30:05.433Z,4.17
2019-06-01T10:35:01.764Z,3.80
2019-06-01T10:39:57.690Z,4.10
2019-06-01T10:44:53.619Z,5.00
2019-06-01T10:49:49.566Z,4.60
2019-06-01T10:54:45.496Z,4.30
2019-06-01T10:59:42.531Z,4.80
2019-06-01T11:04:38.980Z,4.60
2019-06-01T11:09:36.889Z,4.90
2019-06-01T11:14:32.985Z,4.33
2019-06-01T11:19:28.933Z,4.13
2019-06-01T11:24:24.859Z,5.20
2019-06-01T11:29:20.785Z,6.23
2019-06-01T11:34:16.711Z,4.07
2019-06-01T11:39:13.325Z,4.20
2019-06-01T11:44:09.275Z,5.60
2019-06-01T11:49:05.321Z,4.77
2019-06-01T11:54:01.347Z,3.70
2019-06-01T11:58:57.378Z,6.90
2019-06-01T12:03:53.305Z,4.00
2019-06-01T12:08:56.117Z,4.50
2019-06-01T12:13:52.142Z,4.20
2019-06-01T12:18:48.186Z,3.70
2019-06-01T12:23:45.513Z,2.70
2019-06-01T12:28:41.755Z,3.97
2019-06-01T12:33:37.966Z,4.10
2019-06-01T12:38:58.175Z,3.70
2019-06-01T12:44:01.888Z,3.73
2019-06-01T12:48:57.810Z,3.43
2019-06-01T12:53:53.739Z,3.07
2019-06-01T12:58:49.674Z,3.40
2019-06-01T13:03:45.595Z,3.00
2019-06-01T13:08:47.288Z,3.07
2019-06-01T13:13:43.328Z,3.47
2019-06-01T13:18:39.274Z,3.40
2019-06-01T13:23:35.204Z,2.40
2019-06-01T13:28:37.982Z,3.27
2019-06-01T13:33:28.974Z,3.10
2019-06-01T13:38:26.447Z,2.83
2019-06-01T13:43:22.480Z,2.30
2019-06-01T13:48:18.406Z,2.80
2019-06-01T13:53:14.369Z,3.33
2019-06-01T13:58:10.297Z,3.17
2019-06-01T14:03:06.322Z,2.10
2019-06-01T14:08:02.349Z,3.23
2019-06-01T14:12:58.268Z,2.70
2019-06-01T14:17:54.576Z,2.10
2019-06-01T14:22:51.905Z,1.80
2019-06-01T14:27:48.282Z,2.70
2019-06-01T14:32:44.204Z,1.93
2019-06-01T14:37:41.247Z,1.70
2019-06-01T14:42:37.954Z,2.23
2019-06-01T14:47:34.518Z,1.80
2019-06-01T14:52:34.565Z,2.17
2019-06-01T14:57:29.818Z,2.50
2019-06-01T15:02:25.822Z,2.00
2019-06-01T15:07:21.997Z,2.80
2019-06-01T15:12:18.317Z,2.30
2019-06-01T15:17:14.464Z,2.70
2019-06-01T15:22:10.708Z,2.67
2019-06-01T15:27:06.841Z,2.70
2019-06-01T15:32:04.327Z,2.13
2019-06-01T15:37:01.910Z,1.83
2019-06-01T15:41:59.130Z,2.33
2019-06-01T15:46:55.991Z,2.77
2019-06-01T15:51:52.052Z,2.40
2019-06-01T15:56:48.815Z,2.17
2019-06-01T16:01:45.618Z,2.50
2019-06-01T16:06:42.605Z,2.77
2019-06-01T16:11:39.167Z,3.00
2019-06-01T16:16:35.213Z,2.70
2019-06-01T16:21:31.243Z,3.00
2019-06-01T16:26:28.118Z,2.50
2019-06-01T16:31:24.163Z,3.40
2019-06-01T16:36:21.082Z,4.73
2019-06-01T16:41:17.141Z,2.93
2019-06-01T16:46:13.115Z,3.13
2019-06-01T16:51:09.188Z,3.70
2019-06-01T16:56:06.368Z,2.90
2019-06-01T17:01:02.750Z,2.87
2019-06-01T17:05:58.689Z,3.87
2019-06-01T17:10:54.616Z,3.07
2019-06-01T17:15:50.572Z,2.70
2019-06-01T17:20:52.173Z,3.33
2019-06-01T17:25:48.105Z,3.37
2019-06-01T17:30:44.241Z,2.73
2019-06-01T17:35:40.171Z,3.10
2019-06-01T17:40:39.673Z,2.50
2019-06-01T17:45:34.562Z,2.30
2019-06-01T17:50:30.610Z,2.30
2019-06-01T17:55:34.707Z,2.10
2019-06-01T18:00:30.738Z,2.57
2019-06-01T18:05:26.765Z,2.70
2019-06-01T18:10:23.191Z,2.40
2019-06-01T18:15:19.419Z,2.10
2019-06-01T18:20:15.440Z,2.17
2019-06-01T18:25:17.207Z,2.93
2019-06-01T18:30:13.537Z,1.70
2019-06-01T18:35:09.567Z,2.27
2019-06-01T18:40:07.760Z,2.17
2019-06-01T18:45:05.772Z,2.00
2019-06-01T18:50:05.863Z,2.20
2019-06-01T18:55:02.440Z,2.50
2019-06-01T18:59:58.376Z,2.77
2019-06-01T19:04:54.304Z,2.67
2019-06-01T19:09:50.245Z,2.80
2019-06-01T19:14:46.178Z,2.83
2019-06-01T19:19:42.115Z,3.20
2019-06-01T19:24:38.039Z,3.20
2019-06-01T19:29:33.965Z,2.97
2019-06-01T19:34:29.895Z,3.53
2019-06-01T19:39:26.890Z,4.10
2019-06-01T19:44:22.782Z,3.90
2019-06-01T19:49:19.066Z,3.63
2019-06-01T19:54:15.135Z,4.30
2019-06-01T19:59:11.811Z,4.30
2019-06-01T20:04:07.797Z,4.97
2019-06-01T20:09:07.645Z,4.50
2019-06-01T20:14:03.738Z,5.53
2019-06-01T20:18:59.647Z,5.10
2019-06-01T20:23:55.581Z,6.13
2019-06-01T20:28:51.563Z,5.13
2019-06-01T20:33:47.487Z,6.10
2019-06-01T20:38:44.511Z,6.60
2019-06-01T20:43:40.625Z,6.67
2019-06-01T20:48:36.549Z,6.43
2019-06-01T20:53:32.507Z,6.40
2019-06-01T20:58:28.570Z,7.40
2019-06-01T21:03:24.604Z,6.43
2019-06-01T21:08:22.540Z,7.00
2019-06-01T21:13:18.616Z,6.93
2019-06-01T21:18:14.547Z,7.53
2019-06-01T21:23:10.483Z,7.17
2019-06-01T21:28:06.413Z,8.10
2019-06-01T21:33:02.450Z,9.40
2019-06-01T21:37:58.384Z,8.50
2019-06-01T21:43:06.854Z,8.97
2019-06-01T21:47:52.350Z,8.67
2019-06-01T21:52:48.325Z,8.53
2019-06-01T21:57:44.438Z,9.10
2019-06-01T22:02:40.471Z,9.43
2019-06-01T22:07:36.601Z,8.83
2019-06-01T22:12:32.578Z,8.97
2019-06-01T22:17:28.485Z,8.43
2019-06-01T22:22:24.445Z,8.20
2019-06-01T22:27:20.493Z,9.87
2019-06-01T22:32:16.411Z,10.40
2019-06-01T22:37:12.344Z,8.63
2019-06-01T22:42:08.272Z,9.20
2019-06-01T22:47:04.234Z,9.67
2019-06-01T22:52:00.204Z,9.00
2019-06-01T22:56:56.135Z,7.80
2019-06-01T23:01:52.068Z,7.83
2019-06-01T23:06:48.202Z,7.77
2019-06-01T23:11:44.329Z,7.40
2019-06-01T23:16:40.255Z,7.83
2019-06-01T23:21:36.190Z,7.43
2019-06-01T23:26:32.521Z,9.67
2019-06-01T23:31:28.549Z,8.97
2019-06-01T23:36:24.587Z,8.17
2019-06-01T23:41:20.585Z,7.17
2019-06-01T23:46:16.503Z,7.33
2019-06-01T23:51:12.492Z,8.23
2019-06-01T23:56:08.490Z,8.10
